Time;durP1;ratioP1;P1;durP2;ratioP2;P2;SDS_P1;SDS_P2;PMS_P1;PMS_P2;Temp;Humidity;BMP_temperature;BMP_pressure;BME280_temperature;BME280_humidity;BME280_pressure;Samples;Min_cycle;Max_cycle;Signal;HPM_P1;HPM_P2
2023/08/29 00:01:48;;;;;;;3.95;1.02;;;15.80;99.90;;;;;;5074742;28;20542;-87
2023/08/29 00:04:14;;;;;;;2.92;1.20;;;15.20;99.90;;;;;;5074602;28;20280;-87
2023/08/29 00:06:40;;;;;;;1.58;1.38;;;15.10;1.00;;;;;;5074361;28;20265;-87
2023/08/29 00:09:06;;;;;;;3.35;1.50;;;15.10;99.90;;;;;;5074613;28;20221;-88
2023/08/29 00:11:31;;;;;;;1.10;1.00;;;15.00;1.00;;;;;;5074598;28;20660;-87
2023/08/29 00:13:57;;;;;;;1.33;1.23;;;15.00;1.00;;;;;;5075672;28;20169;-87
2023/08/29 00:16:23;;;;;;;1.00;0.90;;;14.90;1.00;;;;;;5078501;28;20220;-88
2023/08/29 00:18:48;;;;;;;1.50;1.30;;;14.80;1.00;;;;;;5078396;28;20292;-89
2023/08/29 00:21:14;;;;;;;4.72;1.35;;;15.20;1.00;;;;;;5078400;28;20173;-87
2023/08/29 00:23:39;;;;;;;2.97;1.20;;;15.80;1.00;;;;;;5078270;28;20551;-88
2023/08/29 00:26:05;;;;;;;1.20;1.10;;;16.50;1.00;;;;;;5077959;28;20215;-88
2023/08/29 00:28:31;;;;;;;1.65;1.27;;;15.40;99.90;;;;;;5078303;28;20686;-87
2023/08/29 00:30:56;;;;;;;0.90;0.90;;;16.00;99.90;;;;;;5078166;28;20184;-89
2023/08/29 00:33:22;;;;;;;1.70;1.10;;;15.40;99.90;;;;;;5078206;28;20177;-89
2023/08/29 00:35:48;;;;;;;1.23;1.10;;;16.10;99.90;;;;;;5077897;28;20211;-87
2023/08/29 00:38:14;;;;;;;1.42;1.30;;;16.20;1.00;;;;;;5078123;28;20304;-86
2023/08/29 00:40:39;;;;;;;4.68;1.20;;;15.00;1.00;;;;;;5078088;28;20201;-86
2023/08/29 00:43:05;;;;;;;2.15;1.30;;;15.70;1.00;;;;;;5077962;28;20638;-87
2023/08/29 00:45:33;;;;;;;2.72;1.38;;;15.30;1.00;;;;;;5077690;28;20635;-87
2023/08/29 00:48:00;;;;;;;2.13;1.40;;;15.30;1.00;;;;;;5077811;28;20170;-87
2023/08/29 00:50:26;;;;;;;2.22;1.10;;;15.00;1.00;;;;;;5078016;28;20659;-87
2023/08/29 00:52:57;;;;;;;2.33;1.38;;;15.40;1.00;;;;;;5077652;28;20670;-87
2023/08/29 00:55:23;;;;;;;1.63;1.10;;;15.00;1.00;;;;;;5077948;28;20181;-86
2023/08/29 00:57:55;;;;;;;1.83;1.20;;;15.80;1.00;;;;;;5077580;28;20177;-86
2023/08/29 01:00:25;;;;;;;3.35;1.38;;;16.10;1.00;;;;;;5077768;28;20200;-87
2023/08/29 01:02:51;;;;;;;1.40;1.20;;;15.50;1.00;;;;;;5077433;28;20268;-87
2023/08/29 01:05:17;;;;;;;2.00;1.27;;;16.20;1.00;;;;;;5077470;28;20398;-87
2023/08/29 01:07:42;;;;;;;2.25;1.40;;;15.20;1.00;;;;;;5077526;28;20651;-88
2023/08/29 01:10:09;;;;;;;1.63;1.52;;;15.10;1.00;;;;;;5077473;28;20189;-87
2023/08/29 01:12:51;;;;;;;2.88;1.20;;;15.30;1.00;;;;;;5077344;28;20651;-88
2023/08/29 01:15:23;;;;;;;1.60;1.50;;;15.30;1.00;;;;;;5077424;28;20635;-87
2023/08/29 01:17:54;;;;;;;1.88;1.20;;;15.30;1.00;;;;;;5077387;28;20184;-87
2023/08/29 01:20:21;;;;;;;1.58;1.23;;;15.30;1.00;;;;;;5077420;28;20666;-87
2023/08/29 01:22:56;;;;;;;2.22;1.20;;;15.20;1.00;;;;;;5077212;28;20233;-87
2023/08/29 01:25:55;;;;;;;2.03;1.40;;;15.40;1.00;;;;;;5094140;28;20682;-86
2023/08/29 01:28:22;;;;;;;1.33;1.23;;;15.20;1.00;;;;;;5077243;28;20197;-88
2023/08/29 01:30:49;;;;;;;1.45;1.35;;;15.60;1.00;;;;;;5077031;28;20177;-87
2023/08/29 01:33:15;;;;;;;2.00;1.40;;;15.70;1.00;;;;;;5077054;28;20588;-86
2023/08/29 01:35:47;;;;;;;1.30;1.20;;;14.90;1.00;;;;;;5095116;28;20208;-87
2023/08/29 01:38:13;;;;;;;1.35;1.10;;;15.60;1.00;;;;;;5076960;28;20666;-87
2023/08/29 01:40:39;;;;;;;1.65;1.13;;;15.90;1.00;;;;;;5077008;28;20180;-87
2023/08/29 01:43:05;;;;;;;1.85;1.10;;;15.10;1.00;;;;;;5076826;28;20185;-87
2023/08/29 01:45:30;;;;;;;2.50;1.50;;;15.40;1.00;;;;;;5076616;28;20220;-89
2023/08/29 01:47:56;;;;;;;2.15;1.30;;;15.20;1.00;;;;;;5076373;28;20176;-89
2023/08/29 01:50:23;;;;;;;1.58;1.20;;;15.00;1.00;;;;;;5076358;28;20183;-89
2023/08/29 01:52:49;;;;;;;2.42;1.23;;;15.20;1.00;;;;;;5076313;28;20294;-89
2023/08/29 01:55:15;;;;;;;1.63;1.30;;;15.70;1.00;;;;;;5076279;28;20203;-88
2023/08/29 01:57:44;;;;;;;2.25;1.38;;;15.20;1.00;;;;;;5076286;28;20271;-88
2023/08/29 02:00:11;;;;;;;2.63;1.50;;;15.40;1.00;;;;;;5076353;28;20183;-88
2023/08/29 02:02:38;;;;;;;1.35;1.10;;;15.30;1.00;;;;;;5075878;28;20259;-87
2023/08/29 02:05:04;;;;;;;1.50;1.33;;;15.20;1.00;;;;;;5075891;28;20201;-88
2023/08/29 02:07:29;;;;;;;2.58;1.42;;;15.20;1.00;;;;;;5094061;28;20253;-88
2023/08/29 02:09:55;;;;;;;2.50;1.20;;;15.10;1.00;;;;;;5094062;28;20670;-88
2023/08/29 02:12:20;;;;;;;3.13;1.40;;;15.20;1.00;;;;;;5093904;28;20760;-88
2023/08/29 02:14:47;;;;;;;1.48;1.30;;;15.20;28.10;;;;;;5075817;28;20176;-89
2023/08/29 02:17:13;;;;;;;3.33;1.50;;;15.60;95.90;;;;;;5093781;28;20173;-89
2023/08/29 02:19:38;;;;;;;2.10;1.65;;;15.20;60.20;;;;;;5093681;28;20245;-89
2023/08/29 02:22:04;;;;;;;1.92;1.30;;;15.10;99.90;;;;;;5075786;28;20176;-88
2023/08/29 02:24:30;;;;;;;1.65;1.20;;;15.10;90.70;;;;;;5093787;28;20627;-88
2023/08/29 02:26:55;;;;;;;1.98;1.25;;;15.10;1.00;;;;;;5075392;28;20205;-88
2023/08/29 02:29:21;;;;;;;2.95;1.50;;;15.10;76.50;;;;;;5075501;28;20197;-89
2023/08/29 02:31:46;;;;;;;1.40;1.30;;;15.00;99.90;;;;;;5075417;28;20263;-88
2023/08/29 02:34:12;;;;;;;1.70;1.38;;;14.80;99.90;;;;;;5075307;28;20173;-88
2023/08/29 02:36:38;;;;;;;2.65;1.70;;;15.00;99.90;;;;;;5093304;28;20269;-87
2023/08/29 02:39:03;;;;;;;1.92;1.80;;;14.90;99.90;;;;;;5075282;28;20249;-90
2023/08/29 02:41:29;;;;;;;2.83;1.60;;;15.00;99.90;;;;;;5093314;28;20173;-88
2023/08/29 02:43:55;;;;;;;2.10;1.90;;;14.80;99.90;;;;;;5075203;28;20294;-89
2023/08/29 02:46:21;;;;;;;3.65;1.65;;;14.50;99.90;;;;;;5075027;28;20250;-88
2023/08/29 02:48:46;;;;;;;2.90;1.95;;;15.20;99.90;;;;;;5075032;28;20200;-89
2023/08/29 02:51:12;;;;;;;2.88;1.80;;;14.80;99.90;;;;;;5075146;28;20181;-90
2023/08/29 02:53:37;;;;;;;3.70;1.75;;;14.80;99.90;;;;;;5075100;28;20843;-88
2023/08/29 02:56:03;;;;;;;2.42;1.77;;;14.80;99.90;;;;;;5075075;28;20177;-88
2023/08/29 02:58:29;;;;;;;1.65;1.33;;;14.90;99.90;;;;;;5079233;28;20682;-88
2023/08/29 03:01:03;;;;;;;1.73;1.45;;;15.10;99.90;;;;;;5093153;28;20741;-89
2023/08/29 03:03:28;;;;;;;2.03;1.83;;;14.80;99.90;;;;;;5074838;28;20181;-88
2023/08/29 03:05:58;;;;;;;2.22;1.65;;;14.80;99.90;;;;;;5074758;28;20205;-89
2023/08/29 03:08:25;;;;;;;2.33;1.70;;;14.80;99.90;;;;;;5074796;28;20224;-89
2023/08/29 03:10:51;;;;;;;3.40;1.73;;;15.10;99.90;;;;;;5074677;28;20241;-89
2023/08/29 03:13:18;;;;;;;3.55;1.55;;;14.70;99.90;;;;;;5074627;28;20326;-88
2023/08/29 03:15:44;;;;;;;3.08;2.10;;;14.70;1.00;;;;;;5092713;28;20184;-87
2023/08/29 03:18:10;;;;;;;1.98;1.60;;;14.60;78.90;;;;;;5074701;28;20208;-89
2023/08/29 03:20:45;;;;;;;1.77;1.67;;;14.70;1.00;;;;;;5092921;28;20177;-89
2023/08/29 03:23:11;;;;;;;2.00;1.80;;;14.70;1.00;;;;;;5074632;28;20622;-90
2023/08/29 03:25:37;;;;;;;3.28;2.20;;;14.50;1.00;;;;;;5092661;28;20577;-89
2023/08/29 03:28:03;;;;;;;2.95;2.00;;;14.60;1.00;;;;;;5092618;28;20165;-90
2023/08/29 03:30:29;;;;;;;2.28;1.92;;;14.60;1.00;;;;;;5074528;28;20704;-89
2023/08/29 03:32:55;;;;;;;2.60;2.22;;;15.10;1.00;;;;;;5074438;28;20204;-89
2023/08/29 03:35:21;;;;;;;2.85;1.85;;;14.60;1.00;;;;;;5074796;28;20239;-90
2023/08/29 03:37:46;;;;;;;2.40;2.20;;;15.00;1.00;;;;;;5074426;28;20177;-91
2023/08/29 03:40:12;;;;;;;2.00;1.90;;;14.80;1.00;;;;;;5074467;28;20172;-87
2023/08/29 03:42:39;;;;;;;2.30;1.73;;;14.60;1.00;;;;;;5092386;28;20627;-90
2023/08/29 03:45:05;;;;;;;2.22;2.03;;;14.50;1.00;;;;;;5074320;28;20203;-91
2023/08/29 03:47:33;;;;;;;2.53;2.10;;;14.50;9.50;;;;;;5074551;28;20177;-89
2023/08/29 03:49:59;;;;;;;3.83;2.00;;;14.50;1.00;;;;;;5073719;28;20617;-88
2023/08/29 03:52:26;;;;;;;3.17;2.20;;;14.50;8.20;;;;;;5074165;28;20271;-87
2023/08/29 03:55:01;;;;;;;2.22;2.00;;;14.40;90.70;;;;;;5074284;28;20526;-89
2023/08/29 03:57:27;;;;;;;2.17;2.08;;;14.60;80.00;;;;;;5074314;28;20169;-89
2023/08/29 03:59:52;;;;;;;2.17;1.80;;;14.60;1.00;;;;;;5074093;28;20198;-89
2023/08/29 04:02:18;;;;;;;2.38;2.15;;;14.60;1.00;;;;;;5092230;28;20226;-89
2023/08/29 04:04:44;;;;;;;3.47;2.45;;;14.50;1.00;;;;;;5074161;28;20173;-89
2023/08/29 04:07:13;;;;;;;2.72;2.00;;;14.40;1.00;;;;;;5074315;28;20212;-89
2023/08/29 04:09:39;;;;;;;2.70;2.50;;;14.70;1.00;;;;;;5074193;28;20765;-90
2023/08/29 04:12:07;;;;;;;2.53;2.33;;;14.40;14.40;;;;;;5074272;28;20184;-90
2023/08/29 04:14:34;;;;;;;2.25;2.05;;;14.30;99.90;;;;;;5074106;28;20175;-89
2023/08/29 04:17:00;;;;;;;2.47;2.13;;;14.60;99.90;;;;;;5074031;28;20176;-88
2023/08/29 04:19:26;;;;;;;2.35;2.05;;;14.80;99.90;;;;;;5074124;28;20615;-88
2023/08/29 04:21:51;;;;;;;2.63;2.42;;;14.30;99.90;;;;;;5074432;28;20184;-90
2023/08/29 04:24:17;;;;;;;4.32;2.22;;;14.30;99.90;;;;;;5074024;28;20527;-89
2023/08/29 04:26:42;;;;;;;2.40;2.15;;;14.80;99.90;;;;;;5073866;28;20634;-89
2023/08/29 04:29:08;;;;;;;3.17;2.47;;;14.30;99.90;;;;;;5091920;28;20193;-88
2023/08/29 04:31:34;;;;;;;2.63;2.28;;;14.30;99.90;;;;;;5074036;28;20608;-89
2023/08/29 04:34:00;;;;;;;2.70;2.00;;;14.30;94.10;;;;;;5073976;28;20181;-89
2023/08/29 04:36:25;;;;;;;4.35;2.40;;;14.30;10.70;;;;;;5073916;28;20192;-89
2023/08/29 04:38:51;;;;;;;2.35;2.15;;;14.30;52.60;;;;;;5073817;28;20197;-89
2023/08/29 04:41:17;;;;;;;3.35;2.25;;;14.20;99.90;;;;;;5073907;28;20193;-89
2023/08/29 04:43:42;;;;;;;3.30;2.17;;;14.30;99.90;;;;;;5073812;28;20196;-90
2023/08/29 04:46:08;;;;;;;2.78;2.10;;;14.30;99.90;;;;;;5091940;28;20670;-90
2023/08/29 04:48:34;;;;;;;3.70;2.10;;;14.20;99.90;;;;;;5074294;28;20200;-91
2023/08/29 04:51:00;;;;;;;2.90;2.33;;;13.90;99.90;;;;;;5092213;28;20559;-91
2023/08/29 04:53:26;;;;;;;3.08;2.25;;;14.10;23.60;;;;;;5074053;28;20185;-90
2023/08/29 04:56:02;;;;;;;2.17;2.08;;;14.30;98.80;;;;;;5074246;28;20177;-90
2023/08/29 04:58:28;;;;;;;2.10;1.90;;;14.30;1.00;;;;;;5074095;28;20201;-90
2023/08/29 05:00:54;;;;;;;2.40;2.20;;;14.30;99.90;;;;;;5075098;28;20180;-90
2023/08/29 05:03:21;;;;;;;2.92;2.08;;;14.30;34.30;;;;;;5077604;28;20184;-91
2023/08/29 05:05:47;;;;;;;3.75;2.20;;;14.30;18.90;;;;;;5077333;28;20292;-91
2023/08/29 05:08:12;;;;;;;3.58;2.30;;;14.30;99.90;;;;;;5077003;28;20224;-91
2023/08/29 05:10:38;;;;;;;4.45;2.20;;;14.30;77.20;;;;;;5077133;28;20180;-90
2023/08/29 05:13:04;;;;;;;2.30;2.10;;;14.60;99.90;;;;;;5077093;28;20235;-90
2023/08/29 05:15:31;;;;;;;3.00;2.13;;;14.40;1.00;;;;;;5076991;28;20180;-90
2023/08/29 05:17:56;;;;;;;2.75;2.35;;;14.50;99.90;;;;;;5076797;28;20209;-91
2023/08/29 05:20:22;;;;;;;2.40;2.20;;;14.60;1.00;;;;;;5076927;28;20623;-91
2023/08/29 05:22:47;;;;;;;3.60;2.03;;;14.70;1.00;;;;;;5076869;28;20188;-91
2023/08/29 05:25:13;;;;;;;3.17;2.58;;;15.00;1.00;;;;;;5076640;28;20201;-90
2023/08/29 05:27:39;;;;;;;2.70;2.33;;;14.80;1.00;;;;;;5077009;28;20643;-90
2023/08/29 05:30:05;;;;;;;2.53;2.33;;;14.80;99.90;;;;;;5077146;28;20667;-90
2023/08/29 05:32:31;;;;;;;2.50;2.30;;;14.90;99.90;;;;;;5076570;28;20173;-90
2023/08/29 05:34:56;;;;;;;4.25;2.85;;;15.00;99.90;;;;;;5094703;28;20175;-91
2023/08/29 05:37:22;;;;;;;7.75;2.67;;;15.80;99.90;;;;;;5076457;28;20179;-90
2023/08/29 05:39:49;;;;;;;2.38;2.15;;;15.00;99.90;;;;;;5076455;28;20696;-90
2023/08/29 05:42:14;;;;;;;2.70;2.28;;;14.90;95.40;;;;;;5076496;28;20176;-91
2023/08/29 05:44:40;;;;;;;3.95;2.20;;;14.90;99.90;;;;;;5094434;28;20189;-90
2023/08/29 05:47:05;;;;;;;2.65;2.45;;;14.90;99.90;;;;;;5076298;28;20670;-89
2023/08/29 05:49:31;;;;;;;3.83;2.40;;;15.10;99.90;;;;;;5091801;28;20243;-90
2023/08/29 05:51:57;;;;;;;4.90;2.80;;;15.10;99.90;;;;;;5075047;28;20669;-91
2023/08/29 05:54:23;;;;;;;3.22;2.50;;;15.10;99.90;;;;;;5068756;28;20181;-91
2023/08/29 05:56:48;;;;;;;3.58;2.60;;;15.10;99.90;;;;;;5087716;28;20193;-90
2023/08/29 05:59:15;;;;;;;4.75;2.88;;;15.10;99.90;;;;;;5091966;28;20215;-91
2023/08/29 06:01:40;;;;;;;2.85;2.60;;;15.00;99.90;;;;;;5087340;28;20238;-91
2023/08/29 06:04:06;;;;;;;3.80;2.80;;;15.00;99.90;;;;;;5086557;28;20915;-90
2023/08/29 06:06:32;;;;;;;4.53;2.53;;;15.30;99.90;;;;;;5068441;28;20201;-89
2023/08/29 06:08:59;;;;;;;2.60;2.35;;;15.20;99.90;;;;;;5068442;28;20205;-90
2023/08/29 06:11:26;;;;;;;3.13;2.75;;;15.20;99.90;;;;;;5067787;28;20650;-90
2023/08/29 06:13:51;;;;;;;3.67;2.88;;;15.20;99.90;;;;;;5102020;28;20226;-90
2023/08/29 06:16:17;;;;;;;3.00;2.75;;;15.20;99.90;;;;;;5069101;28;20180;-91
2023/08/29 06:18:43;;;;;;;3.20;2.95;;;15.30;99.90;;;;;;5068312;28;20208;-90
2023/08/29 06:21:09;;;;;;;3.33;2.92;;;15.10;1.00;;;;;;5068167;28;20184;-90
2023/08/29 06:23:34;;;;;;;4.63;2.97;;;15.20;99.90;;;;;;5068045;28;20685;-90
2023/08/29 06:26:00;;;;;;;3.17;2.97;;;15.10;1.00;;;;;;5075048;28;20265;-89
2023/08/29 06:28:27;;;;;;;4.53;3.28;;;15.30;99.90;;;;;;5076768;28;20280;-89
2023/08/29 06:30:52;;;;;;;3.45;2.90;;;15.40;1.00;;;;;;5076209;28;20264;-89
2023/08/29 06:33:18;;;;;;;3.25;2.95;;;15.30;99.90;;;;;;5075952;28;20293;-90
2023/08/29 06:35:43;;;;;;;2.90;2.70;;;16.10;99.90;;;;;;5076332;28;20173;-89
2023/08/29 06:38:09;;;;;;;3.42;2.95;;;15.30;99.90;;;;;;5076493;28;20686;-91
2023/08/29 06:40:35;;;;;;;3.22;2.90;;;15.20;99.90;;;;;;5076441;28;20181;-89
2023/08/29 06:43:01;;;;;;;2.70;2.50;;;15.10;7.50;;;;;;5076092;28;20263;-89
2023/08/29 06:45:26;;;;;;;4.13;3.72;;;15.50;83.10;;;;;;5095781;28;20204;-89
2023/08/29 06:47:52;;;;;;;4.28;3.03;;;15.50;99.90;;;;;;5076663;28;20241;-89
2023/08/29 06:50:17;;;;;;;4.47;2.88;;;15.60;1.00;;;;;;5078360;28;20169;-90
2023/08/29 06:52:43;;;;;;;3.75;2.75;;;15.30;1.00;;;;;;5077675;28;20180;-88
2023/08/29 06:55:09;;;;;;;4.03;3.15;;;15.20;1.00;;;;;;5078409;28;20211;-89
2023/08/29 06:57:35;;;;;;;4.10;2.50;;;15.00;1.00;;;;;;5078646;28;20677;-88
2023/08/29 07:00:03;;;;;;;4.68;2.65;;;15.30;1.00;;;;;;5076484;28;20197;-89
2023/08/29 07:02:29;;;;;;;4.10;2.63;;;15.30;1.00;;;;;;5076679;28;20176;-90
2023/08/29 07:04:54;;;;;;;3.10;2.60;;;15.80;1.00;;;;;;5077581;28;20180;-90
2023/08/29 07:07:20;;;;;;;3.30;2.63;;;15.60;1.00;;;;;;5076063;28;20213;-91
2023/08/29 07:09:46;;;;;;;3.10;2.78;;;16.00;1.00;;;;;;5076377;28;20205;-90
2023/08/29 07:12:11;;;;;;;2.95;2.60;;;15.60;1.00;;;;;;5076819;28;20171;-92
2023/08/29 07:14:37;;;;;;;4.13;2.85;;;15.60;1.00;;;;;;5078970;28;20188;-91
2023/08/29 07:17:03;;;;;;;2.80;2.60;;;15.50;1.00;;;;;;5079600;28;20180;-90
2023/08/29 07:19:29;;;;;;;4.30;3.00;;;15.60;1.00;;;;;;5099406;28;20224;-91
2023/08/29 07:21:55;;;;;;;5.30;2.90;;;16.40;1.00;;;;;;5080661;28;20181;-89
2023/08/29 07:24:21;;;;;;;4.15;3.08;;;15.50;1.00;;;;;;5080484;28;20225;-89
2023/08/29 07:26:47;;;;;;;4.30;2.80;;;15.60;1.00;;;;;;5080006;28;20203;-90
2023/08/29 07:29:12;;;;;;;3.53;3.08;;;15.60;1.00;;;;;;5080263;28;20561;-88
2023/08/29 07:31:38;;;;;;;4.25;3.08;;;15.50;1.00;;;;;;5078418;28;20177;-88
2023/08/29 07:34:03;;;;;;;4.75;3.22;;;15.60;1.00;;;;;;5078986;28;20196;-89
2023/08/29 07:36:29;;;;;;;3.58;3.10;;;15.90;1.00;;;;;;5083079;28;20175;-88
2023/08/29 07:38:56;;;;;;;5.93;3.10;;;15.80;1.00;;;;;;5084355;28;20200;-88
2023/08/29 07:41:22;;;;;;;3.80;3.35;;;16.00;1.00;;;;;;5077961;28;20582;-89
2023/08/29 07:43:47;;;;;;;3.70;3.20;;;16.50;1.00;;;;;;5075357;28;20659;-90
2023/08/29 07:46:13;;;;;;;3.67;3.22;;;15.80;1.00;;;;;;5077666;28;20242;-89
2023/08/29 07:48:40;;;;;;;8.80;5.57;;;15.80;1.00;;;;;;5076356;28;20197;-88
2023/08/29 07:51:05;;;;;;;6.78;4.20;;;18.60;1.00;;;;;;5076250;28;20180;-90
2023/08/29 07:53:31;;;;;;;3.33;3.00;;;16.00;1.00;;;;;;5077618;28;20180;-89
2023/08/29 07:55:57;;;;;;;3.95;3.17;;;16.10;99.90;;;;;;5078138;28;20177;-89
2023/08/29 07:58:23;;;;;;;7.32;4.05;;;16.00;1.00;;;;;;5076670;28;20291;-90
2023/08/29 08:00:48;;;;;;;4.10;3.70;;;16.10;1.00;;;;;;5076486;28;20231;-89
2023/08/29 08:03:14;;;;;;;5.32;3.45;;;16.50;1.00;;;;;;5076241;28;20168;-89
2023/08/29 08:05:40;;;;;;;4.03;3.20;;;16.30;99.90;;;;;;5075718;28;20204;-88
2023/08/29 08:08:08;;;;;;;3.25;2.95;;;16.60;99.90;;;;;;5075750;28;20176;-89
2023/08/29 08:10:41;;;;;;;3.42;2.92;;;16.20;99.90;;;;;;5076194;28;20169;-89
2023/08/29 08:13:07;;;;;;;3.67;3.08;;;16.30;99.90;;;;;;5074620;28;20203;-89
2023/08/29 08:15:32;;;;;;;4.47;3.45;;;16.20;99.90;;;;;;5074119;28;20230;-89
2023/08/29 08:17:58;;;;;;;4.00;3.00;;;16.20;99.90;;;;;;5075591;28;20583;-89
2023/08/29 08:20:23;;;;;;;3.38;3.05;;;16.40;99.90;;;;;;5078248;28;20173;-89
2023/08/29 08:22:49;;;;;;;3.67;3.20;;;16.20;99.90;;;;;;5076139;28;20176;-89
2023/08/29 08:25:15;;;;;;;3.60;2.83;;;16.20;99.90;;;;;;5077257;28;20184;-88
2023/08/29 08:27:40;;;;;;;4.15;3.00;;;17.10;99.90;;;;;;5077101;28;20195;-89
2023/08/29 08:30:10;;;;;;;3.72;3.13;;;16.40;99.90;;;;;;5077376;28;20196;-89
2023/08/29 08:32:36;;;;;;;3.90;2.70;;;16.60;99.90;;;;;;5077950;28;20589;-88
2023/08/29 08:35:05;;;;;;;3.28;2.83;;;16.70;99.90;;;;;;5099810;28;20185;-89
2023/08/29 08:37:35;;;;;;;3.60;3.10;;;16.80;81.20;;;;;;5088508;28;20169;-89
2023/08/29 08:40:09;;;;;;;3.25;2.78;;;17.80;99.90;;;;;;5081322;28;20284;-90
2023/08/29 08:42:36;;;;;;;4.93;2.72;;;17.10;1.00;;;;;;5081396;28;20599;-89
2023/08/29 08:45:05;;;;;;;4.43;3.00;;;17.20;1.00;;;;;;5079518;28;20189;-90
2023/08/29 08:47:33;;;;;;;3.63;2.90;;;17.20;1.00;;;;;;5079324;28;20177;-90
2023/08/29 08:49:58;;;;;;;4.25;2.95;;;17.00;1.00;;;;;;5078495;28;20204;-89
2023/08/29 08:52:24;;;;;;;4.93;2.78;;;17.10;1.00;;;;;;5068585;28;20181;-89
2023/08/29 08:54:50;;;;;;;3.78;2.78;;;17.00;1.00;;;;;;5087474;28;20726;-89
2023/08/29 08:57:15;;;;;;;2.53;2.33;;;17.20;1.00;;;;;;5069482;28;20180;-89
2023/08/29 08:59:42;;;;;;;6.43;3.22;;;17.60;1.00;;;;;;5068603;28;20713;-89
2023/08/29 09:02:14;;;;;;;2.92;2.63;;;17.60;1.00;;;;;;5073239;28;20208;-90
2023/08/29 09:04:39;;;;;;;3.75;3.00;;;17.90;1.00;;;;;;5074907;28;20549;-89
2023/08/29 09:07:05;;;;;;;5.57;3.20;;;17.10;1.00;;;;;;5091784;28;20204;-90
2023/08/29 09:09:31;;;;;;;4.20;3.25;;;17.20;1.00;;;;;;5074444;28;20204;-90
2023/08/29 09:12:00;;;;;;;4.45;3.00;;;17.00;1.00;;;;;;5090241;28;20192;-90
2023/08/29 09:14:26;;;;;;;6.25;2.85;;;17.40;1.00;;;;;;5071613;28;21159;-91
2023/08/29 09:16:59;;;;;;;3.20;2.38;;;17.70;1.00;;;;;;5071654;28;20181;-89
2023/08/29 09:19:29;;;;;;;3.00;2.70;;;17.70;1.00;;;;;;5064108;28;20197;-88
2023/08/29 09:21:55;;;;;;;3.40;2.58;;;18.00;1.00;;;;;;5062916;28;20253;-89
2023/08/29 09:24:36;;;;;;;3.13;2.83;;;17.90;1.00;;;;;;5089561;28;20187;-90
2023/08/29 09:27:08;;;;;;;2.88;2.63;;;18.20;1.00;;;;;;5090270;28;20204;-91
2023/08/29 09:29:34;;;;;;;3.90;2.92;;;18.20;1.00;;;;;;5071619;28;20561;-90
2023/08/29 09:32:00;;;;;;;3.75;2.72;;;18.60;1.00;;;;;;5071558;28;20185;-90
2023/08/29 09:34:27;;;;;;;3.72;3.00;;;17.80;1.00;;;;;;5071743;28;20185;-91
2023/08/29 09:36:54;;;;;;;4.28;3.22;;;18.00;1.00;;;;;;5072603;28;20191;-90
2023/08/29 09:39:21;;;;;;;3.85;3.03;;;18.00;1.00;;;;;;5075727;28;20208;-91
2023/08/29 09:42:07;;;;;;;4.05;3.05;;;17.80;1.00;;;;;;5076368;28;20613;-90
2023/08/29 09:44:40;;;;;;;3.28;2.72;;;17.70;1.00;;;;;;5091607;28;20192;-88
2023/08/29 09:47:07;;;;;;;5.25;3.28;;;17.70;1.00;;;;;;5075287;28;20463;-90
2023/08/29 09:49:48;;;;;;;5.97;3.35;;;17.60;1.00;;;;;;5076269;28;20203;-91
2023/08/29 09:52:15;;;;;;;4.65;3.78;;;17.70;1.00;;;;;;5095245;28;20181;-90
2023/08/29 09:54:50;;;;;;;4.25;2.80;;;18.00;1.00;;;;;;5076461;28;20222;-90
2023/08/29 09:57:21;;;;;;;4.85;2.88;;;18.40;1.00;;;;;;5090935;28;20662;-90
2023/08/29 09:59:51;;;;;;;4.25;2.50;;;18.40;1.00;;;;;;5072844;28;20212;-90
2023/08/29 10:02:20;;;;;;;4.53;3.03;;;18.50;1.00;;;;;;5073122;28;20265;-90
2023/08/29 10:05:00;;;;;;;4.80;2.83;;;19.00;1.00;;;;;;5090945;28;20211;-91
2023/08/29 10:07:52;;;;;;;2.83;2.50;;;18.50;1.00;;;;;;5072864;28;20212;-91
2023/08/29 10:10:21;;;;;;;2.90;2.58;;;18.50;1.00;;;;;;5082294;28;20192;-90
2023/08/29 10:12:58;;;;;;;2.63;2.40;;;18.60;1.00;;;;;;5072791;28;20205;-90
2023/08/29 10:15:24;;;;;;;2.42;2.25;;;18.60;99.90;;;;;;5072169;28;20176;-88
2023/08/29 10:17:50;;;;;;;2.42;2.22;;;18.60;99.90;;;;;;5072960;28;20177;-90
2023/08/29 10:20:17;;;;;;;4.22;2.30;;;18.60;99.90;;;;;;5073416;28;20185;-90
2023/08/29 10:22:45;;;;;;;2.22;2.03;;;18.40;99.90;;;;;;5105576;28;20185;-90
2023/08/29 10:25:13;;;;;;;2.92;2.05;;;18.30;99.90;;;;;;5089861;28;20538;-91
2023/08/29 10:27:40;;;;;;;3.40;2.30;;;18.40;99.90;;;;;;5063150;28;20181;-91
2023/08/29 10:30:17;;;;;;;2.20;2.00;;;18.00;99.90;;;;;;5072876;28;20228;-90
2023/08/29 10:32:44;;;;;;;2.88;2.20;;;18.00;99.90;;;;;;5072672;28;20208;-91
2023/08/29 10:35:22;;;;;;;2.58;2.10;;;18.10;99.90;;;;;;5073157;28;20707;-92
2023/08/29 10:37:52;;;;;;;4.10;2.10;;;18.20;99.90;;;;;;5071856;28;20552;-93
2023/08/29 10:40:18;;;;;;;5.22;2.10;;;18.10;99.90;;;;;;5072568;28;20527;-91
2023/08/29 10:42:51;;;;;;;2.60;2.30;;;18.30;99.90;;;;;;5090920;28;20188;-92
2023/08/29 10:45:19;;;;;;;3.70;1.75;;;18.70;99.90;;;;;;5072724;28;20233;-90
2023/08/29 10:47:46;;;;;;;3.60;1.90;;;19.00;99.90;;;;;;5073475;28;20180;-90
2023/08/29 10:50:18;;;;;;;3.15;1.67;;;19.20;99.90;;;;;;5074691;28;20258;-89
2023/08/29 10:52:44;;;;;;;4.95;1.90;;;19.10;99.90;;;;;;5076043;28;20654;-89
2023/08/29 10:55:31;;;;;;;2.10;1.58;;;19.10;99.90;;;;;;5078296;28;20173;-88
2023/08/29 10:58:00;;;;;;;2.80;1.70;;;18.90;99.90;;;;;;5108103;28;20570;-89
2023/08/29 11:00:42;;;;;;;4.00;1.88;;;20.10;99.90;;;;;;5086122;28;20437;-89
2023/08/29 11:03:08;;;;;;;3.35;2.00;;;18.70;99.90;;;;;;5092790;28;20173;-88
2023/08/29 11:05:40;;;;;;;2.17;1.58;;;18.40;99.90;;;;;;5096797;28;20435;-88
2023/08/29 16:18:24;;;;;;;3.67;0.95;;;19.50;1.00;;;;;;5095631;22;20711;-74
2023/08/29 16:20:53;;;;;;;1.05;0.80;;;19.50;1.00;;;;;;5044862;28;20182;-74
2023/08/29 16:23:19;;;;;;;3.17;0.90;;;19.40;1.00;;;;;;5041484;28;20202;-75
2023/08/29 16:25:44;;;;;;;1.33;0.70;;;19.50;1.00;;;;;;5036091;28;20758;-74
2023/08/29 16:28:12;;;;;;;1.95;0.70;;;19.50;1.00;;;;;;5035119;28;20190;-74
2023/08/29 16:30:38;;;;;;;1.83;0.90;;;19.50;1.00;;;;;;5034505;28;20182;-74
2023/08/29 16:33:06;;;;;;;1.15;0.63;;;19.60;1.00;;;;;;5034432;28;20352;-73
2023/08/29 16:35:32;;;;;;;1.10;0.60;;;19.60;1.00;;;;;;5032022;28;20193;-74
2023/08/29 16:38:03;;;;;;;1.05;0.60;;;19.70;1.00;;;;;;5034496;28;20232;-74
2023/08/29 16:40:32;;;;;;;1.55;0.57;;;19.70;1.00;;;;;;5031525;28;20647;-73
2023/08/29 16:42:58;;;;;;;1.38;0.60;;;19.70;1.00;;;;;;5030980;28;20194;-74
2023/08/29 16:45:24;;;;;;;0.95;0.80;;;19.80;1.00;;;;;;5033697;28;20182;-74
2023/08/29 16:47:50;;;;;;;0.80;0.60;;;19.80;1.00;;;;;;5033639;28;20187;-75
2023/08/29 16:50:16;;;;;;;0.95;0.70;;;19.80;1.00;;;;;;5036224;28;20178;-74
2023/08/29 16:52:42;;;;;;;1.52;0.88;;;19.70;1.00;;;;;;5034554;28;20186;-74
2023/08/29 16:55:08;;;;;;;1.10;0.60;;;19.60;1.00;;;;;;5033462;28;20374;-74
2023/08/29 16:57:33;;;;;;;0.93;0.73;;;19.70;1.00;;;;;;5038215;28;20555;-75
2023/08/29 17:00:00;;;;;;;1.10;0.70;;;19.60;1.00;;;;;;5036621;28;20228;-74
2023/08/29 17:02:26;;;;;;;0.82;0.63;;;19.60;1.00;;;;;;5039835;28;20178;-73
2023/08/29 17:04:53;;;;;;;0.70;0.63;;;19.50;1.00;;;;;;5035627;28;20799;-74
2023/08/29 17:07:19;;;;;;;1.30;0.60;;;19.50;1.00;;;;;;5037991;28;20252;-75
2023/08/29 17:09:45;;;;;;;1.80;0.70;;;19.50;1.00;;;;;;5038508;28;20182;-77
2023/08/29 17:12:17;;;;;;;1.60;0.60;;;19.40;1.00;;;;;;5037906;28;20249;-72
2023/08/29 17:14:43;;;;;;;3.05;0.68;;;19.40;1.00;;;;;;5032938;28;20670;-75
2023/08/29 17:17:09;;;;;;;1.75;0.70;;;19.30;1.00;;;;;;5035630;28;20288;-71
2023/08/29 17:19:34;;;;;;;2.17;0.60;;;19.20;1.00;;;;;;5039144;28;20671;-75
2023/08/29 17:22:00;;;;;;;1.67;0.70;;;19.10;1.00;;;;;;5036651;28;20631;-75
2023/08/29 17:24:26;;;;;;;1.20;0.70;;;19.10;1.00;;;;;;5036602;28;20696;-75
2023/08/29 17:26:51;;;;;;;0.85;0.70;;;19.00;1.00;;;;;;5036298;28;20199;-73
2023/08/29 17:29:21;;;;;;;2.22;0.60;;;18.90;1.00;;;;;;5037214;28;20229;-74
2023/08/29 17:31:46;;;;;;;1.02;0.70;;;18.80;1.00;;;;;;5039168;28;20174;-76
2023/08/29 17:34:12;;;;;;;0.82;0.70;;;18.80;1.00;;;;;;5033996;28;20545;-74
2023/08/29 17:36:38;;;;;;;1.10;0.70;;;18.70;1.00;;;;;;5035887;28;20201;-80
2023/08/29 17:39:04;;;;;;;0.95;0.70;;;18.70;1.00;;;;;;5037885;28;20191;-74
2023/08/29 17:41:30;;;;;;;1.38;0.63;;;18.60;1.00;;;;;;5036916;28;20972;-73
2023/08/29 17:43:56;;;;;;;0.90;0.80;;;18.60;1.00;;;;;;5037656;28;20210;-77
2023/08/29 17:46:22;;;;;;;0.90;0.70;;;18.60;1.00;;;;;;5036212;28;20187;-74
2023/08/29 17:48:48;;;;;;;1.20;0.70;;;18.50;1.00;;;;;;5038312;28;20410;-74
2023/08/29 17:51:13;;;;;;;0.68;0.63;;;18.50;1.00;;;;;;5035915;28;20183;-74
2023/08/29 17:53:39;;;;;;;0.70;0.70;;;18.40;1.00;;;;;;5035291;28;20571;-72
2023/08/29 17:56:05;;;;;;;0.90;0.90;;;18.30;1.00;;;;;;5038175;28;20273;-73
2023/08/29 17:58:31;;;;;;;1.45;1.20;;;18.20;1.00;;;;;;5035356;28;20217;-74
2023/08/29 18:00:57;;;;;;;0.68;0.68;;;18.20;1.00;;;;;;5036826;28;20657;-74
2023/08/29 18:03:23;;;;;;;0.90;0.70;;;18.20;1.00;;;;;;5036113;28;20260;-76